createdAt,value
2023-01-17T00:00:52.195Z,100.00
2023-01-17T00:02:25.553Z,100.00
2023-01-17T00:04:16.652Z,100.00
2023-01-17T00:06:07.631Z,100.00
2023-01-17T00:07:59.064Z,100.00
2023-01-17T00:10:04.113Z,100.00
2023-01-17T00:11:37.059Z,100.00
2023-01-17T00:13:10.263Z,100.00
2023-01-17T00:14:43.320Z,100.00
2023-01-17T00:16:16.287Z,100.00
2023-01-17T00:17:50.078Z,100.00
2023-01-17T00:19:41.339Z,100.00
2023-01-17T00:21:33.184Z,100.00
2023-01-17T00:23:32.934Z,100.00
2023-01-17T00:25:25.032Z,100.00
2023-01-17T00:27:12.900Z,100.00
2023-01-17T00:28:46.733Z,100.00
2023-01-17T00:30:19.867Z,100.00
2023-01-17T00:31:52.820Z,100.00
2023-01-17T00:33:26.146Z,100.00
2023-01-17T00:34:58.976Z,100.00
2023-01-17T00:36:31.929Z,100.00
2023-01-17T00:38:12.972Z,100.00
2023-01-17T00:39:45.742Z,100.00
2023-01-17T00:41:18.636Z,100.00
2023-01-17T00:42:51.553Z,100.00
2023-01-17T00:44:42.991Z,100.00
2023-01-17T00:46:34.897Z,100.00
2023-01-17T00:48:26.689Z,100.00
2023-01-17T00:50:17.954Z,100.00
2023-01-17T00:52:09.538Z,100.00
2023-01-17T00:54:01.124Z,100.00
2023-01-17T00:55:52.925Z,100.00
2023-01-17T00:57:44.535Z,100.00
2023-01-17T00:59:36.451Z,100.00
2023-01-17T01:01:27.939Z,100.00
2023-01-17T01:03:19.407Z,100.00
2023-01-17T01:05:10.649Z,100.00
2023-01-17T01:07:02.191Z,100.00
2023-01-17T01:08:53.405Z,100.00
2023-01-17T01:10:44.471Z,100.00
2023-01-17T01:12:35.938Z,100.00
2023-01-17T01:14:29.188Z,100.00
2023-01-17T01:16:20.931Z,100.00
2023-01-17T01:18:12.166Z,100.00
2023-01-17T01:20:03.834Z,100.00
2023-01-17T01:21:55.082Z,100.00
2023-01-17T01:23:46.329Z,100.00
2023-01-17T01:25:38.250Z,100.00
2023-01-17T01:27:30.177Z,100.00
2023-01-17T01:29:21.466Z,100.00
2023-01-17T01:31:12.742Z,100.00
2023-01-17T01:33:03.761Z,100.00
2023-01-17T01:34:37.213Z,100.00
2023-01-17T01:36:10.925Z,100.00
2023-01-17T01:37:45.013Z,100.00
2023-01-17T01:39:18.604Z,100.00
2023-01-17T01:40:56.703Z,100.00
2023-01-17T01:42:29.646Z,100.00
2023-01-17T01:44:02.524Z,100.00
2023-01-17T01:45:36.271Z,100.00
2023-01-17T01:47:31.156Z,100.00
2023-01-17T01:49:19.438Z,99.92
2023-01-17T01:50:53.142Z,99.60
2023-01-17T01:52:28.678Z,99.46
2023-01-17T01:54:14.717Z,100.00
2023-01-17T01:55:50.918Z,100.00
2023-01-17T01:57:29.388Z,100.00
2023-01-17T01:59:07.420Z,100.00
2023-01-17T02:00:42.326Z,100.00
2023-01-17T02:02:16.009Z,99.77
2023-01-17T02:03:50.334Z,99.85
2023-01-17T02:05:25.817Z,100.00
2023-01-17T02:07:14.264Z,100.00
2023-01-17T02:08:48.390Z,99.79
2023-01-17T02:10:21.274Z,99.93
2023-01-17T02:11:54.508Z,100.00
2023-01-17T02:13:28.841Z,100.00
2023-01-17T02:15:02.731Z,99.88
2023-01-17T02:16:59.840Z,100.00
2023-01-17T02:18:38.750Z,99.87
2023-01-17T02:21:03.035Z,100.00
2023-01-17T02:23:04.837Z,100.00
2023-01-17T02:24:44.049Z,100.00
2023-01-17T02:26:31.601Z,100.00
2023-01-17T02:28:47.502Z,100.00
2023-01-17T02:31:21.959Z,100.00
2023-01-17T02:33:07.043Z,100.00
2023-01-17T02:35:29.582Z,100.00
2023-01-17T02:37:12.359Z,99.77
2023-01-17T02:38:44.972Z,99.61
2023-01-17T02:40:25.327Z,98.08
2023-01-17T02:42:17.144Z,98.62
2023-01-17T02:43:51.846Z,99.81
2023-01-17T02:45:24.756Z,100.00
2023-01-17T02:46:58.405Z,100.00
2023-01-17T02:48:34.444Z,100.00
2023-01-17T02:50:12.070Z,100.00
2023-01-17T02:51:56.473Z,100.00
2023-01-17T02:54:02.048Z,100.00
2023-01-17T02:55:37.741Z,100.00
2023-01-17T02:57:28.942Z,100.00
2023-01-17T02:59:26.424Z,100.00
2023-01-17T03:01:35.170Z,100.00
2023-01-17T03:03:30.908Z,100.00
2023-01-17T03:05:36.015Z,100.00
2023-01-17T03:07:29.701Z,100.00
2023-01-17T03:09:03.594Z,100.00
2023-01-17T03:10:37.459Z,100.00
2023-01-17T03:12:10.722Z,100.00
2023-01-17T03:13:44.035Z,100.00
2023-01-17T03:15:20.737Z,100.00
2023-01-17T03:16:54.530Z,100.00
2023-01-17T03:18:27.623Z,100.00
2023-01-17T03:20:00.457Z,100.00
2023-01-17T03:21:33.327Z,100.00
2023-01-17T03:23:06.306Z,100.00
2023-01-17T03:24:39.277Z,100.00
2023-01-17T03:26:12.182Z,100.00
2023-01-17T03:27:45.251Z,100.00
2023-01-17T03:29:18.523Z,100.00
2023-01-17T03:30:51.355Z,100.00
2023-01-17T03:32:24.501Z,100.00
2023-01-17T03:33:57.407Z,100.00
2023-01-17T03:35:30.533Z,100.00
2023-01-17T03:37:03.430Z,100.00
2023-01-17T03:38:37.602Z,100.00
2023-01-17T03:40:11.063Z,100.00
2023-01-17T03:41:44.262Z,100.00
2023-01-17T03:43:17.131Z,99.60
2023-01-17T03:44:50.029Z,98.99
2023-01-17T03:46:25.367Z,99.02
2023-01-17T03:47:59.562Z,99.03
2023-01-17T03:49:32.584Z,98.49
2023-01-17T03:51:05.653Z,98.76
2023-01-17T03:52:38.512Z,98.50
2023-01-17T03:54:11.792Z,98.39
2023-01-17T03:55:48.027Z,98.60
2023-01-17T03:57:21.141Z,98.34
2023-01-17T03:58:54.156Z,97.89
2023-01-17T04:00:27.177Z,97.45
2023-01-17T04:02:00.322Z,96.84
2023-01-17T04:03:33.272Z,97.37
2023-01-17T04:05:06.724Z,96.65
2023-01-17T04:06:39.990Z,97.31
2023-01-17T04:08:12.871Z,96.51
2023-01-17T04:09:45.750Z,97.06
2023-01-17T04:11:18.674Z,97.31
2023-01-17T04:12:51.946Z,97.83
2023-01-17T04:14:24.799Z,98.03
2023-01-17T04:15:59.492Z,98.22
2023-01-17T04:17:32.536Z,97.73
2023-01-17T04:19:05.537Z,98.06
2023-01-17T04:20:40.340Z,98.00
2023-01-17T04:22:13.181Z,97.51
2023-01-17T04:23:46.111Z,97.53
2023-01-17T04:25:20.325Z,96.59
2023-01-17T04:26:53.215Z,97.51
2023-01-17T04:28:26.128Z,97.28
2023-01-17T04:29:58.936Z,97.10
2023-01-17T04:31:32.109Z,96.74
2023-01-17T04:33:05.546Z,97.65
2023-01-17T04:34:38.562Z,97.21
2023-01-17T04:36:11.456Z,97.23
2023-01-17T04:37:44.485Z,96.39
2023-01-17T04:39:17.459Z,96.36
2023-01-17T04:40:51.376Z,95.81
2023-01-17T04:42:24.332Z,95.95
2023-01-17T04:43:57.573Z,95.39
2023-01-17T04:45:30.315Z,95.73
2023-01-17T04:47:03.614Z,95.57
2023-01-17T04:48:37.053Z,96.01
2023-01-17T04:50:11.093Z,94.92
2023-01-17T04:51:43.938Z,95.81
2023-01-17T04:53:17.022Z,95.63
2023-01-17T04:54:49.989Z,95.88
2023-01-17T04:56:23.371Z,94.99
2023-01-17T04:57:56.562Z,94.47
2023-01-17T04:59:29.740Z,94.23
2023-01-17T05:01:08.323Z,92.25
2023-01-17T05:02:41.660Z,89.07
2023-01-17T05:04:14.646Z,85.37
2023-01-17T05:05:48.546Z,78.97
2023-01-17T05:07:21.496Z,75.15
2023-01-17T05:08:54.604Z,71.72
2023-01-17T05:10:27.768Z,68.58
2023-01-17T05:12:00.927Z,66.77
2023-01-17T05:13:33.965Z,64.68
2023-01-17T05:15:07.491Z,63.56
2023-01-17T05:16:40.364Z,62.17
2023-01-17T05:18:15.089Z,61.95
2023-01-17T05:19:48.471Z,61.48
2023-01-17T05:21:22.754Z,61.64
2023-01-17T05:22:57.305Z,61.91
2023-01-17T05:24:31.724Z,62.33
2023-01-17T05:26:04.612Z,62.03
2023-01-17T05:27:37.780Z,61.82
2023-01-17T05:29:10.996Z,60.95
2023-01-17T05:30:43.912Z,61.50
2023-01-17T05:32:16.777Z,61.40
2023-01-17T05:33:49.956Z,61.61
2023-01-17T05:35:25.886Z,62.17
2023-01-17T05:36:58.974Z,62.06
2023-01-17T05:38:32.018Z,62.52
2023-01-17T05:40:06.615Z,62.70
2023-01-17T05:41:39.580Z,62.99
2023-01-17T05:43:12.621Z,62.69
2023-01-17T05:44:45.515Z,62.68
2023-01-17T05:46:18.720Z,62.91
2023-01-17T05:47:54.359Z,63.35
2023-01-17T05:49:27.286Z,62.97
2023-01-17T05:51:01.809Z,63.21
2023-01-17T05:52:34.898Z,61.60
2023-01-17T05:54:07.923Z,61.83
2023-01-17T05:55:42.201Z,62.10
2023-01-17T05:57:16.153Z,62.32
2023-01-17T05:58:49.277Z,62.41
2023-01-17T06:00:23.239Z,61.77
2023-01-17T06:01:56.511Z,62.21
2023-01-17T06:03:29.637Z,60.04
2023-01-17T06:05:03.584Z,58.33
2023-01-17T06:06:36.564Z,58.07
2023-01-17T06:08:11.141Z,57.01
2023-01-17T06:09:44.397Z,56.46
2023-01-17T06:11:18.953Z,55.99
2023-01-17T06:13:11.081Z,58.23
2023-01-17T06:14:44.983Z,55.90
2023-01-17T06:16:17.961Z,56.01
2023-01-17T06:17:51.088Z,54.85
2023-01-17T06:19:24.094Z,55.12
2023-01-17T06:20:57.653Z,54.14
2023-01-17T06:22:30.759Z,53.44
2023-01-17T06:24:04.408Z,52.72
2023-01-17T06:25:39.117Z,52.74
2023-01-17T06:27:12.005Z,52.97
2023-01-17T06:28:45.106Z,53.20
2023-01-17T06:30:18.439Z,53.02
2023-01-17T06:31:51.370Z,53.37
2023-01-17T06:33:24.184Z,53.98
2023-01-17T06:34:57.018Z,54.27
2023-01-17T06:36:30.544Z,54.03
2023-01-17T06:38:03.445Z,53.09
2023-01-17T06:39:37.222Z,53.49
2023-01-17T06:41:10.670Z,52.80
2023-01-17T06:42:44.293Z,52.98
2023-01-17T06:44:20.068Z,52.63
2023-01-17T06:45:55.300Z,53.40
2023-01-17T06:47:28.234Z,53.64
2023-01-17T06:49:01.538Z,53.84
2023-01-17T06:50:35.533Z,54.48
2023-01-17T06:52:08.711Z,54.33
2023-01-17T06:53:42.084Z,53.92
2023-01-17T06:55:15.499Z,54.07
2023-01-17T06:58:38.887Z,54.16
2023-01-17T07:00:12.506Z,53.49
2023-01-17T07:01:45.695Z,53.47
2023-01-17T07:03:27.439Z,54.07
2023-01-17T07:05:00.861Z,53.82
2023-01-17T07:06:36.568Z,54.25
2023-01-17T07:08:10.027Z,54.53
2023-01-17T07:09:43.006Z,54.94
2023-01-17T07:11:16.376Z,55.17
2023-01-17T07:12:49.390Z,54.67
2023-01-17T07:14:22.788Z,55.42
2023-01-17T07:15:55.808Z,55.06
2023-01-17T07:17:29.041Z,55.00
2023-01-17T07:19:02.929Z,54.98
2023-01-17T07:20:36.313Z,55.15
2023-01-17T07:22:10.899Z,55.07
2023-01-17T07:23:43.865Z,54.45
2023-01-17T07:25:16.815Z,54.15
2023-01-17T07:26:53.584Z,54.08
2023-01-17T07:28:28.335Z,54.21
2023-01-17T07:30:01.425Z,55.10
2023-01-17T07:31:38.360Z,55.29
2023-01-17T07:33:11.564Z,54.69
2023-01-17T07:34:44.475Z,55.12
2023-01-17T07:36:17.347Z,54.87
2023-01-17T07:37:51.201Z,54.69
2023-01-17T07:39:24.298Z,54.47
2023-01-17T07:41:00.717Z,54.56
2023-01-17T07:42:33.727Z,54.21
2023-01-17T07:44:06.855Z,53.92
2023-01-17T07:45:44.356Z,53.66
2023-01-17T07:47:17.472Z,53.71
2023-01-17T07:48:50.344Z,53.52
2023-01-17T07:50:23.331Z,53.17
2023-01-17T07:51:56.770Z,52.92
2023-01-17T07:53:31.782Z,53.09
2023-01-17T07:55:05.538Z,53.00
2023-01-17T07:56:40.051Z,52.70
2023-01-17T07:58:15.313Z,52.88
2023-01-17T07:59:51.133Z,52.38
2023-01-17T08:01:24.368Z,52.28
2023-01-17T08:03:01.597Z,51.59
2023-01-17T08:04:35.662Z,52.09
2023-01-17T08:06:19.053Z,52.14
2023-01-17T08:07:52.336Z,52.52
2023-01-17T08:09:25.270Z,52.55
2023-01-17T08:10:58.625Z,52.08
2023-01-17T08:12:31.926Z,52.00
2023-01-17T08:14:04.888Z,52.22
2023-01-17T08:15:38.014Z,51.91
2023-01-17T08:17:16.457Z,51.18
2023-01-17T08:18:49.451Z,50.68
2023-01-17T08:20:22.456Z,50.71
2023-01-17T08:21:55.315Z,50.06
2023-01-17T08:23:28.440Z,49.99
2023-01-17T08:25:01.326Z,49.90
2023-01-17T08:26:35.039Z,50.07
2023-01-17T08:28:08.247Z,48.76
2023-01-17T08:29:47.266Z,48.05
2023-01-17T08:31:20.452Z,46.84
2023-01-17T08:32:54.317Z,47.29
2023-01-17T08:34:27.604Z,46.76
2023-01-17T08:36:00.729Z,46.67
2023-01-17T08:37:33.735Z,46.65
2023-01-17T08:39:07.163Z,46.61
2023-01-17T08:40:40.287Z,46.50
2023-01-17T08:42:13.341Z,46.18
2023-01-17T08:43:51.253Z,46.35
2023-01-17T08:45:24.897Z,45.75
2023-01-17T08:46:57.913Z,46.32
2023-01-17T08:48:31.174Z,45.40
2023-01-17T08:50:07.140Z,45.63
2023-01-17T08:51:40.822Z,45.40
2023-01-17T08:53:13.835Z,45.27
2023-01-17T08:54:47.312Z,45.48
2023-01-17T08:56:20.386Z,45.37
2023-01-17T08:57:56.167Z,45.30
2023-01-17T08:59:29.093Z,45.86
2023-01-17T09:01:03.961Z,45.88
2023-01-17T09:02:37.126Z,45.59
2023-01-17T09:04:11.317Z,45.90
2023-01-17T09:05:44.205Z,45.59
2023-01-17T09:07:19.409Z,45.35
2023-01-17T09:08:54.323Z,45.91
2023-01-17T09:10:27.520Z,45.99
2023-01-17T09:12:01.087Z,46.00
2023-01-17T09:13:34.624Z,45.51
2023-01-17T09:15:08.069Z,45.94
2023-01-17T09:16:41.034Z,45.85
2023-01-17T09:18:13.998Z,45.01
2023-01-17T09:19:49.056Z,44.98
2023-01-17T09:21:22.848Z,45.07
2023-01-17T09:22:56.011Z,45.18
2023-01-17T09:24:29.266Z,45.34
2023-01-17T09:26:02.650Z,45.24
2023-01-17T09:27:35.663Z,45.23
2023-01-17T09:29:11.391Z,45.53
2023-01-17T09:30:44.300Z,45.77
2023-01-17T09:32:17.725Z,45.85
2023-01-17T09:33:52.548Z,45.71
2023-01-17T09:35:26.178Z,45.69
2023-01-17T09:36:59.248Z,45.86
2023-01-17T09:38:33.331Z,45.71
2023-01-17T09:40:06.933Z,45.47
2023-01-17T09:41:51.892Z,45.10
2023-01-17T09:43:35.040Z,46.08
2023-01-17T09:45:16.828Z,46.29
2023-01-17T09:46:52.482Z,46.42
2023-01-17T09:48:37.639Z,46.26
2023-01-17T09:50:21.272Z,46.18
2023-01-17T09:51:54.984Z,46.21
2023-01-17T09:53:31.836Z,46.03
2023-01-17T09:55:08.060Z,46.24
2023-01-17T09:56:46.565Z,46.30
2023-01-17T09:58:34.407Z,46.43
2023-01-17T10:00:33.492Z,46.57
2023-01-17T10:02:31.329Z,46.32
2023-01-17T10:04:13.796Z,46.57
2023-01-17T10:06:20.303Z,46.21
2023-01-17T10:08:05.190Z,46.64
2023-01-17T10:09:46.856Z,46.26
2023-01-17T10:11:34.986Z,45.90
2023-01-17T10:13:46.298Z,46.21
2023-01-17T10:15:45.393Z,46.07
2023-01-17T10:17:39.462Z,45.97
2023-01-17T10:19:31.761Z,47.01
2023-01-17T10:21:30.684Z,46.07
2023-01-17T10:23:22.384Z,46.34
2023-01-17T10:25:19.880Z,46.16
2023-01-17T10:27:24.801Z,46.63
2023-01-17T10:29:03.399Z,46.48
2023-01-17T10:30:45.356Z,47.17
2023-01-17T10:32:22.518Z,47.29
2023-01-17T10:33:58.573Z,46.85
2023-01-17T10:35:35.135Z,46.90
2023-01-17T10:37:21.307Z,46.74
2023-01-17T10:38:57.429Z,46.95
2023-01-17T10:40:51.669Z,47.12
2023-01-17T10:42:58.134Z,47.01
2023-01-17T10:44:42.645Z,47.45
2023-01-17T10:46:24.371Z,47.29
2023-01-17T10:48:35.198Z,48.02
2023-01-17T10:50:18.463Z,47.65
2023-01-17T10:52:17.036Z,48.05
2023-01-17T10:53:51.087Z,47.76
2023-01-17T10:55:32.841Z,47.83
2023-01-17T10:57:05.966Z,48.29
2023-01-17T10:58:39.065Z,48.20
2023-01-17T11:00:39.422Z,48.67
2023-01-17T11:02:24.234Z,49.14
2023-01-17T11:03:59.033Z,49.24
2023-01-17T11:05:33.730Z,49.40
2023-01-17T11:07:18.380Z,49.49
2023-01-17T11:08:54.636Z,50.10
2023-01-17T11:10:40.237Z,50.74
2023-01-17T11:12:27.032Z,50.62
2023-01-17T11:14:16.261Z,50.86
2023-01-17T11:15:53.787Z,50.88
2023-01-17T11:17:27.974Z,50.53
2023-01-17T11:19:15.577Z,50.23
2023-01-17T11:20:50.156Z,50.09
2023-01-17T11:22:23.461Z,50.06
2023-01-17T11:23:57.756Z,49.93
2023-01-17T11:25:36.100Z,50.13
2023-01-17T11:27:28.960Z,50.10
2023-01-17T11:29:27.091Z,49.90
2023-01-17T11:31:23.741Z,50.13
2023-01-17T11:33:07.381Z,50.43
2023-01-17T11:34:40.268Z,50.19
2023-01-17T11:36:16.303Z,49.78
2023-01-17T11:37:58.428Z,50.06
2023-01-17T11:39:31.917Z,49.96
2023-01-17T11:41:22.449Z,50.19
2023-01-17T11:43:19.022Z,50.41
2023-01-17T11:44:52.103Z,50.25
2023-01-17T11:46:26.578Z,50.34
2023-01-17T11:48:08.645Z,50.67
2023-01-17T11:49:46.687Z,50.80
2023-01-17T11:51:23.465Z,51.33
2023-01-17T11:53:17.128Z,51.43
2023-01-17T11:54:50.745Z,51.51
2023-01-17T11:56:36.260Z,52.15
2023-01-17T11:58:15.562Z,52.98
2023-01-17T11:59:49.065Z,53.16
2023-01-17T12:01:42.586Z,54.05
2023-01-17T12:03:43.360Z,54.33
2023-01-17T12:05:41.004Z,54.47
2023-01-17T12:07:36.233Z,55.06
2023-01-17T12:09:45.643Z,55.02
2023-01-17T12:12:05.287Z,54.92
2023-01-17T12:14:13.367Z,55.52
2023-01-17T12:16:00.678Z,56.51
2023-01-17T12:17:47.835Z,57.90
2023-01-17T12:19:51.925Z,57.97
2023-01-17T12:21:39.695Z,57.27
2023-01-17T12:23:18.397Z,58.30
2023-01-17T12:25:06.467Z,59.21
2023-01-17T12:27:23.200Z,59.41
2023-01-17T12:29:35.585Z,60.58
2023-01-17T12:31:18.867Z,61.25
2023-01-17T12:33:13.110Z,61.57
2023-01-17T12:34:55.329Z,61.72
2023-01-17T12:36:40.785Z,62.24
2023-01-17T12:38:51.933Z,61.75
2023-01-17T12:40:47.045Z,61.81
2023-01-17T12:42:26.879Z,62.36
2023-01-17T12:44:01.230Z,62.85
2023-01-17T12:45:43.829Z,63.47
2023-01-17T12:47:19.781Z,63.61
2023-01-17T12:48:58.767Z,64.09
2023-01-17T12:50:53.239Z,65.17
2023-01-17T12:52:40.993Z,66.66
2023-01-17T12:54:36.710Z,71.75
2023-01-17T12:56:27.564Z,73.60
2023-01-17T12:58:05.037Z,74.58
2023-01-17T12:59:53.262Z,71.58
2023-01-17T13:01:32.652Z,71.94
2023-01-17T13:03:29.710Z,71.76
2023-01-17T13:05:15.655Z,71.36
2023-01-17T13:07:12.925Z,73.45
2023-01-17T13:08:50.858Z,75.96
2023-01-17T13:10:56.232Z,73.14
2023-01-17T13:12:34.927Z,70.92
2023-01-17T13:14:10.907Z,70.35
2023-01-17T13:15:44.646Z,74.94
2023-01-17T13:17:45.751Z,73.48
2023-01-17T13:19:41.424Z,73.27
2023-01-17T13:21:34.039Z,74.05
2023-01-17T13:23:34.060Z,74.25
2023-01-17T13:25:35.205Z,74.99
2023-01-17T13:27:17.233Z,74.51
2023-01-17T13:29:21.398Z,75.81
2023-01-17T13:31:14.954Z,75.16
2023-01-17T13:33:20.203Z,74.46
2023-01-17T13:35:02.415Z,73.50
2023-01-17T13:37:05.086Z,73.14
2023-01-17T13:38:55.218Z,74.31
2023-01-17T13:40:52.270Z,72.69
2023-01-17T13:42:57.294Z,72.42
2023-01-17T13:44:32.201Z,72.46
2023-01-17T13:46:07.239Z,73.91
2023-01-17T13:47:41.713Z,72.82
2023-01-17T13:49:42.579Z,73.00
2023-01-17T13:51:15.921Z,73.26
2023-01-17T13:52:48.944Z,72.70
2023-01-17T13:54:34.623Z,72.83
2023-01-17T13:56:19.602Z,72.18
2023-01-17T13:57:52.586Z,72.21
2023-01-17T13:59:30.589Z,72.43
2023-01-17T14:01:03.565Z,72.05
2023-01-17T14:02:39.035Z,71.93
2023-01-17T14:04:13.465Z,71.75
2023-01-17T14:05:49.466Z,70.49
2023-01-17T14:07:26.645Z,70.46
2023-01-17T14:09:14.374Z,71.07
2023-01-17T14:10:53.980Z,71.02
2023-01-17T14:12:32.424Z,71.01
2023-01-17T14:14:40.321Z,71.40
2023-01-17T14:16:22.413Z,71.55
2023-01-17T14:17:58.765Z,72.12
2023-01-17T14:19:37.377Z,72.53
2023-01-17T14:21:23.222Z,72.77
2023-01-17T14:23:02.783Z,73.56
2023-01-17T14:24:58.292Z,73.32
2023-01-17T14:26:41.699Z,73.52
2023-01-17T14:28:33.057Z,74.35
2023-01-17T14:30:34.130Z,74.03
2023-01-17T14:32:14.810Z,74.85
2023-01-17T14:33:47.944Z,75.12
2023-01-17T14:35:23.661Z,75.28
2023-01-17T14:37:06.487Z,75.19
2023-01-17T14:38:44.201Z,75.47
2023-01-17T14:40:30.818Z,75.76
2023-01-17T14:42:03.773Z,74.78
2023-01-17T14:43:41.976Z,75.22
2023-01-17T14:45:22.498Z,74.99
2023-01-17T14:46:57.460Z,74.20
2023-01-17T14:48:30.825Z,74.94
2023-01-17T14:50:40.319Z,76.25
2023-01-17T14:52:17.722Z,77.09
2023-01-17T14:54:02.716Z,77.54
2023-01-17T14:55:35.896Z,75.79
2023-01-17T14:57:28.639Z,76.33
2023-01-17T14:59:17.422Z,76.34
2023-01-17T15:00:53.952Z,76.23
2023-01-17T15:02:28.041Z,76.58
2023-01-17T15:04:01.949Z,75.50
2023-01-17T15:05:34.998Z,75.33
2023-01-17T15:07:16.636Z,75.07
2023-01-17T15:08:50.423Z,73.78
2023-01-17T15:10:32.040Z,73.97
2023-01-17T15:12:08.855Z,73.90
2023-01-17T15:13:50.090Z,73.66
2023-01-17T15:15:35.597Z,73.39
2023-01-17T15:17:21.958Z,73.48
2023-01-17T15:18:56.242Z,74.06
2023-01-17T15:20:29.333Z,74.84
2023-01-17T15:22:02.552Z,75.00
2023-01-17T15:23:46.760Z,75.31
2023-01-17T15:25:19.871Z,75.21
2023-01-17T15:26:53.117Z,75.02
2023-01-17T15:28:26.439Z,75.56
2023-01-17T15:30:02.626Z,74.74
2023-01-17T15:31:45.173Z,75.76
2023-01-17T15:33:21.275Z,75.38
2023-01-17T15:34:54.674Z,75.78
2023-01-17T15:36:34.857Z,76.02
2023-01-17T15:38:15.432Z,76.28
2023-01-17T15:39:49.103Z,75.79
2023-01-17T15:41:24.895Z,76.24
2023-01-17T15:43:01.176Z,76.74
2023-01-17T15:44:48.512Z,77.34
2023-01-17T15:46:34.429Z,77.97
2023-01-17T15:48:40.851Z,78.18
2023-01-17T15:50:28.977Z,77.58
2023-01-17T15:52:09.458Z,77.75
2023-01-17T15:53:43.443Z,78.54
2023-01-17T15:55:23.869Z,78.56
2023-01-17T15:57:18.421Z,78.79
2023-01-17T15:58:51.297Z,79.59
2023-01-17T16:00:32.873Z,79.91
2023-01-17T16:02:34.082Z,80.19
2023-01-17T16:04:29.064Z,81.01
2023-01-17T16:06:04.680Z,81.22
2023-01-17T16:07:37.989Z,81.06
2023-01-17T16:09:23.210Z,81.30
2023-01-17T16:11:02.625Z,82.18
2023-01-17T16:12:35.729Z,81.48
2023-01-17T16:14:09.205Z,82.03
2023-01-17T16:15:42.427Z,81.74
2023-01-17T16:17:18.134Z,82.20
2023-01-17T16:19:02.451Z,82.22
2023-01-17T16:20:39.137Z,82.86
2023-01-17T16:22:12.771Z,83.16
2023-01-17T16:23:46.344Z,82.87
2023-01-17T16:25:22.120Z,82.88
2023-01-17T16:26:55.242Z,83.29
2023-01-17T16:28:28.068Z,83.36
2023-01-17T16:30:01.039Z,83.48
2023-01-17T16:31:34.389Z,83.78
2023-01-17T16:33:10.335Z,84.93
2023-01-17T16:34:44.921Z,84.50
2023-01-17T16:36:18.237Z,85.44
2023-01-17T16:38:12.418Z,85.80
2023-01-17T16:39:46.591Z,86.85
2023-01-17T16:41:20.312Z,86.67
2023-01-17T16:42:55.388Z,87.38
2023-01-17T16:44:28.588Z,86.70
2023-01-17T16:46:01.512Z,87.65
2023-01-17T16:47:34.388Z,87.43
2023-01-17T16:49:07.260Z,87.32
2023-01-17T16:50:52.689Z,87.23
2023-01-17T16:52:25.746Z,86.83
2023-01-17T16:53:58.786Z,86.28
2023-01-17T16:55:31.766Z,86.04
2023-01-17T16:57:04.885Z,85.77
2023-01-17T16:58:38.117Z,84.83
2023-01-17T17:00:14.589Z,83.98
2023-01-17T17:01:49.540Z,83.17
2023-01-17T17:03:23.058Z,82.99
2023-01-17T17:04:56.086Z,81.63
2023-01-17T17:06:31.902Z,81.59
2023-01-17T17:08:05.080Z,81.10
2023-01-17T17:09:38.323Z,81.66
2023-01-17T17:11:18.266Z,82.19
2023-01-17T17:12:51.245Z,81.24
2023-01-17T17:14:24.016Z,81.53
2023-01-17T17:15:57.552Z,81.47
2023-01-17T17:17:30.682Z,81.80
2023-01-17T17:19:06.681Z,81.47
2023-01-17T17:20:39.715Z,81.44
2023-01-17T17:22:12.739Z,82.17
2023-01-17T17:23:46.711Z,81.44
2023-01-17T17:25:20.090Z,81.25
2023-01-17T17:26:52.972Z,80.96
2023-01-17T17:28:26.099Z,82.01
2023-01-17T17:29:59.022Z,81.83
2023-01-17T17:31:32.297Z,81.71
2023-01-17T17:33:05.279Z,81.25
2023-01-17T17:34:39.156Z,82.03
2023-01-17T17:36:12.379Z,82.05
2023-01-17T17:37:45.371Z,81.31
2023-01-17T17:39:18.314Z,81.07
2023-01-17T17:40:51.428Z,81.67
2023-01-17T17:42:24.426Z,82.23
2023-01-17T17:43:58.041Z,82.31
2023-01-17T17:45:31.021Z,82.08
2023-01-17T17:47:04.447Z,81.69
2023-01-17T17:48:37.796Z,81.64
2023-01-17T17:50:11.118Z,81.47
2023-01-17T17:51:48.185Z,80.96
2023-01-17T17:53:22.100Z,80.56
2023-01-17T17:54:55.273Z,80.47
2023-01-17T17:56:30.166Z,79.62
2023-01-17T17:58:03.141Z,79.13
2023-01-17T17:59:36.160Z,79.27
2023-01-17T18:01:09.334Z,79.73
2023-01-17T18:02:42.619Z,79.25
2023-01-17T18:04:15.615Z,80.20
2023-01-17T18:05:48.807Z,81.22
2023-01-17T18:07:21.942Z,81.18
2023-01-17T18:08:54.973Z,81.65
2023-01-17T18:10:28.378Z,81.30
2023-01-17T18:12:03.206Z,81.75
2023-01-17T18:13:36.232Z,80.91
2023-01-17T18:15:09.383Z,81.75
2023-01-17T18:16:45.109Z,82.08
2023-01-17T18:18:18.350Z,82.82
2023-01-17T18:19:52.869Z,81.72
2023-01-17T18:21:32.202Z,82.65
2023-01-17T18:23:05.188Z,82.46
2023-01-17T18:24:38.327Z,82.02
2023-01-17T18:26:21.134Z,81.22
2023-01-17T18:27:54.144Z,80.83
2023-01-17T18:29:27.820Z,81.60
2023-01-17T18:31:05.614Z,80.85
2023-01-17T18:32:39.320Z,81.16
2023-01-17T18:34:14.683Z,81.27
2023-01-17T18:35:55.198Z,81.58
2023-01-17T18:37:28.132Z,82.31
2023-01-17T18:39:02.486Z,81.90
2023-01-17T18:40:35.345Z,81.25
2023-01-17T18:42:08.255Z,80.29
2023-01-17T18:43:41.910Z,79.79
2023-01-17T18:45:15.241Z,78.45
2023-01-17T18:46:48.268Z,78.51
2023-01-17T18:48:21.303Z,79.31
2023-01-17T18:49:54.526Z,79.57
2023-01-17T18:51:32.177Z,80.31
2023-01-17T18:53:05.043Z,80.14
2023-01-17T18:54:38.109Z,80.57
2023-01-17T18:56:14.372Z,81.37
2023-01-17T18:57:47.554Z,81.21
2023-01-17T18:59:21.712Z,80.91
2023-01-17T19:00:55.122Z,81.25
2023-01-17T19:02:28.074Z,80.83
2023-01-17T19:04:02.601Z,80.09
2023-01-17T19:05:38.333Z,81.34
2023-01-17T19:07:12.616Z,81.87
2023-01-17T19:08:46.233Z,81.75
2023-01-17T19:10:20.688Z,81.51
2023-01-17T19:11:53.638Z,81.67
2023-01-17T19:13:27.378Z,80.96
2023-01-17T19:15:00.537Z,80.87
2023-01-17T19:16:40.445Z,81.45
2023-01-17T19:18:13.437Z,80.92
2023-01-17T19:19:46.675Z,80.42
2023-01-17T19:21:22.437Z,80.52
2023-01-17T19:22:55.496Z,80.12
2023-01-17T19:24:28.570Z,78.70
2023-01-17T19:26:01.557Z,78.93
2023-01-17T19:27:34.721Z,79.30
2023-01-17T19:29:08.059Z,79.93
2023-01-17T19:30:41.044Z,79.30
2023-01-17T19:32:13.915Z,79.54
2023-01-17T19:33:48.631Z,79.07
2023-01-17T19:35:22.766Z,78.99
2023-01-17T19:36:56.609Z,79.34
2023-01-17T19:38:30.184Z,78.67
2023-01-17T19:40:03.260Z,79.58
2023-01-17T19:41:38.532Z,78.75
2023-01-17T19:43:11.653Z,78.39
2023-01-17T19:44:44.734Z,78.51
2023-01-17T19:46:19.982Z,77.51
2023-01-17T19:47:53.029Z,77.30
2023-01-17T19:49:25.944Z,76.76
2023-01-17T19:51:10.946Z,77.46
2023-01-17T19:52:43.920Z,77.63
2023-01-17T19:54:17.395Z,78.49
2023-01-17T19:55:50.572Z,78.30
2023-01-17T19:57:24.666Z,78.75
2023-01-17T19:59:01.641Z,79.07
2023-01-17T20:00:45.893Z,79.13
2023-01-17T20:02:19.673Z,79.04
2023-01-17T20:03:53.045Z,79.60
2023-01-17T20:05:26.248Z,80.24
2023-01-17T20:06:59.359Z,79.61
2023-01-17T20:08:32.921Z,79.61
2023-01-17T20:10:06.189Z,80.03
2023-01-17T20:11:42.571Z,80.34
2023-01-17T20:13:15.889Z,80.49
2023-01-17T20:14:50.163Z,81.27
2023-01-17T20:16:24.518Z,81.36
2023-01-17T20:17:57.833Z,81.82
2023-01-17T20:19:31.254Z,82.29
2023-01-17T20:21:06.088Z,82.43
2023-01-17T20:22:45.690Z,83.16
2023-01-17T20:24:18.862Z,82.74
2023-01-17T20:25:59.415Z,82.35
2023-01-17T20:27:32.395Z,82.99
2023-01-17T20:29:12.697Z,83.90
2023-01-17T20:30:46.046Z,83.74
2023-01-17T20:32:19.173Z,84.07
2023-01-17T20:33:54.542Z,84.23
2023-01-17T20:35:30.042Z,85.98
2023-01-17T20:37:03.291Z,85.94
2023-01-17T20:38:45.628Z,86.22
2023-01-17T20:40:18.838Z,86.94
2023-01-17T20:41:52.375Z,87.92
2023-01-17T20:43:25.446Z,88.55
2023-01-17T20:44:58.475Z,89.45
2023-01-17T20:46:35.698Z,89.61
2023-01-17T20:48:08.707Z,89.94
2023-01-17T20:49:43.731Z,90.24
2023-01-17T20:51:17.903Z,90.47
2023-01-17T20:52:50.778Z,90.65
2023-01-17T20:54:24.187Z,91.15
2023-01-17T20:55:58.033Z,92.52
2023-01-17T20:57:32.728Z,93.48
2023-01-17T20:59:08.859Z,94.03
2023-01-17T21:00:42.561Z,95.57
2023-01-17T21:02:16.077Z,95.37
2023-01-17T21:03:53.377Z,95.18
2023-01-17T21:05:26.410Z,94.72
2023-01-17T21:06:59.487Z,95.87
2023-01-17T21:08:35.517Z,95.60